Burlington, Vermont
Current Conditions -  °F | °C
As of 3:54 AM on Monday 20 Oct 2014 (Local Time) from KBTV Reporting Station
Clear Clear  
Wind Chill: 37°   Ceiling: Unl
Heat Index: 37°   Visibility: 10mi
Dew Point: 26°   Wind: 3mph
Humidity: 65%   Direction: 340°NNW
Pressure: 29.99"   Gusts: NA
Location:  44.48°N, 73.21°W
Report Text: KBTV 200754Z 34003KT 10SM CLR 03/M03 A2999 RMK AO2 SLP159 T00281033
Loading
Personal Weather Stations






























Interactive Weather Map New forecast layout! Learn more

10-Day Weather Forecast

Advertisements
Track Severe Weather on mobile